sensor_id;sensor_type;location;lat;lon;timestamp;temperature;humidity
16404;DHT22;8311;50.158;8.642;2022-10-22T00:00:18;20.20;65.50
16404;DHT22;8311;50.158;8.642;2022-10-22T00:03:11;20.20;65.60
16404;DHT22;8311;50.158;8.642;2022-10-22T00:06:05;20.20;65.70
16404;DHT22;8311;50.158;8.642;2022-10-22T00:08:58;20.20;65.90
16404;DHT22;8311;50.158;8.642;2022-10-22T00:11:51;20.20;65.80
16404;DHT22;8311;50.158;8.642;2022-10-22T00:14:46;20.20;65.70
16404;DHT22;8311;50.158;8.642;2022-10-22T00:17:41;20.20;66.00
16404;DHT22;8311;50.158;8.642;2022-10-22T00:20:34;20.10;66.40
16404;DHT22;8311;50.158;8.642;2022-10-22T00:23:28;20.20;66.40
16404;DHT22;8311;50.158;8.642;2022-10-22T00:26:22;20.20;67.20
16404;DHT22;8311;50.158;8.642;2022-10-22T00:29:16;20.20;67.40
16404;DHT22;8311;50.158;8.642;2022-10-22T00:32:10;20.20;67.80
16404;DHT22;8311;50.158;8.642;2022-10-22T00:35:06;20.20;67.00
16404;DHT22;8311;50.158;8.642;2022-10-22T00:37:59;20.20;66.80
16404;DHT22;8311;50.158;8.642;2022-10-22T00:40:53;20.20;66.50
16404;DHT22;8311;50.158;8.642;2022-10-22T00:43:57;20.20;66.50
16404;DHT22;8311;50.158;8.642;2022-10-22T00:46:50;20.20;66.40
16404;DHT22;8311;50.158;8.642;2022-10-22T00:49:43;20.20;66.60
16404;DHT22;8311;50.158;8.642;2022-10-22T00:52:39;20.20;66.30
16404;DHT22;8311;50.158;8.642;2022-10-22T00:55:33;20.20;66.40
16404;DHT22;8311;50.158;8.642;2022-10-22T00:58:28;20.20;66.60
16404;DHT22;8311;50.158;8.642;2022-10-22T01:01:25;20.20;66.20
16404;DHT22;8311;50.158;8.642;2022-10-22T01:04:19;20.20;66.30
16404;DHT22;8311;50.158;8.642;2022-10-22T01:07:16;20.20;66.30
16404;DHT22;8311;50.158;8.642;2022-10-22T01:10:19;20.20;66.40
16404;DHT22;8311;50.158;8.642;2022-10-22T01:13:25;20.20;66.30
16404;DHT22;8311;50.158;8.642;2022-10-22T01:16:27;20.20;67.30
16404;DHT22;8311;50.158;8.642;2022-10-22T01:19:41;20.40;68.00
16404;DHT22;8311;50.158;8.642;2022-10-22T01:22:40;20.30;67.30
16404;DHT22;8311;50.158;8.642;2022-10-22T01:25:40;20.30;68.10
16404;DHT22;8311;50.158;8.642;2022-10-22T01:28:55;20.30;67.30
16404;DHT22;8311;50.158;8.642;2022-10-22T01:31:55;20.30;66.90
16404;DHT22;8311;50.158;8.642;2022-10-22T01:34:54;20.30;67.10
16404;DHT22;8311;50.158;8.642;2022-10-22T01:37:50;20.30;67.30
16404;DHT22;8311;50.158;8.642;2022-10-22T01:40:44;20.30;67.30
16404;DHT22;8311;50.158;8.642;2022-10-22T01:43:38;20.30;67.00
16404;DHT22;8311;50.158;8.642;2022-10-22T01:46:33;20.30;67.40
16404;DHT22;8311;50.158;8.642;2022-10-22T01:49:32;20.30;67.20
16404;DHT22;8311;50.158;8.642;2022-10-22T01:52:38;20.30;67.40
16404;DHT22;8311;50.158;8.642;2022-10-22T01:55:42;20.30;67.00
16404;DHT22;8311;50.158;8.642;2022-10-22T01:58:42;20.30;66.90
16404;DHT22;8311;50.158;8.642;2022-10-22T02:01:43;20.30;66.90
16404;DHT22;8311;50.158;8.642;2022-10-22T02:04:45;20.30;66.70
16404;DHT22;8311;50.158;8.642;2022-10-22T02:07:42;20.30;66.50
16404;DHT22;8311;50.158;8.642;2022-10-22T02:10:38;20.30;66.40
16404;DHT22;8311;50.158;8.642;2022-10-22T02:13:35;20.30;66.70
16404;DHT22;8311;50.158;8.642;2022-10-22T02:16:33;20.30;66.50
16404;DHT22;8311;50.158;8.642;2022-10-22T02:19:34;20.30;66.40
16404;DHT22;8311;50.158;8.642;2022-10-22T02:22:29;20.30;66.10
16404;DHT22;8311;50.158;8.642;2022-10-22T02:25:24;20.30;66.10
16404;DHT22;8311;50.158;8.642;2022-10-22T02:28:23;20.30;65.90
16404;DHT22;8311;50.158;8.642;2022-10-22T02:31:20;20.30;65.80
16404;DHT22;8311;50.158;8.642;2022-10-22T02:34:18;20.30;65.90
16404;DHT22;8311;50.158;8.642;2022-10-22T02:37:15;20.30;66.00
16404;DHT22;8311;50.158;8.642;2022-10-22T02:40:10;20.30;65.80
16404;DHT22;8311;50.158;8.642;2022-10-22T02:43:04;20.30;65.60
16404;DHT22;8311;50.158;8.642;2022-10-22T02:45:57;20.30;65.50
16404;DHT22;8311;50.158;8.642;2022-10-22T02:48:50;20.30;65.60
16404;DHT22;8311;50.158;8.642;2022-10-22T02:51:43;20.30;65.60
16404;DHT22;8311;50.158;8.642;2022-10-22T02:54:38;20.30;65.90
16404;DHT22;8311;50.158;8.642;2022-10-22T02:57:30;20.30;65.60
16404;DHT22;8311;50.158;8.642;2022-10-22T03:00:23;20.30;65.70
16404;DHT22;8311;50.158;8.642;2022-10-22T03:03:17;20.30;65.90
16404;DHT22;8311;50.158;8.642;2022-10-22T03:06:11;20.30;66.00
16404;DHT22;8311;50.158;8.642;2022-10-22T03:09:04;20.30;66.10
16404;DHT22;8311;50.158;8.642;2022-10-22T03:11:59;20.30;66.10
16404;DHT22;8311;50.158;8.642;2022-10-22T03:14:51;20.30;66.20
16404;DHT22;8311;50.158;8.642;2022-10-22T03:17:44;20.30;66.00
16404;DHT22;8311;50.158;8.642;2022-10-22T03:20:37;20.30;65.90
16404;DHT22;8311;50.158;8.642;2022-10-22T03:23:31;20.30;66.10
16404;DHT22;8311;50.158;8.642;2022-10-22T03:26:25;20.30;66.50
16404;DHT22;8311;50.158;8.642;2022-10-22T03:29:19;20.30;66.50
16404;DHT22;8311;50.158;8.642;2022-10-22T03:32:13;20.30;66.60
16404;DHT22;8311;50.158;8.642;2022-10-22T03:35:07;20.30;67.00
16404;DHT22;8311;50.158;8.642;2022-10-22T03:38:00;20.30;66.70
16404;DHT22;8311;50.158;8.642;2022-10-22T03:40:53;20.30;67.20
16404;DHT22;8311;50.158;8.642;2022-10-22T03:43:46;20.30;67.00
16404;DHT22;8311;50.158;8.642;2022-10-22T03:46:45;20.30;67.00
16404;DHT22;8311;50.158;8.642;2022-10-22T03:49:39;20.30;67.20
16404;DHT22;8311;50.158;8.642;2022-10-22T03:52:35;20.30;67.20
16404;DHT22;8311;50.158;8.642;2022-10-22T03:55:28;20.30;67.30
16404;DHT22;8311;50.158;8.642;2022-10-22T03:58:21;20.30;67.30
16404;DHT22;8311;50.158;8.642;2022-10-22T04:01:14;20.30;67.40
16404;DHT22;8311;50.158;8.642;2022-10-22T04:04:09;20.30;67.50
16404;DHT22;8311;50.158;8.642;2022-10-22T04:07:01;20.30;67.40
16404;DHT22;8311;50.158;8.642;2022-10-22T04:09:54;20.30;67.40
16404;DHT22;8311;50.158;8.642;2022-10-22T04:12:47;20.30;67.50
16404;DHT22;8311;50.158;8.642;2022-10-22T04:15:41;20.30;67.60
16404;DHT22;8311;50.158;8.642;2022-10-22T04:18:33;20.30;67.40
16404;DHT22;8311;50.158;8.642;2022-10-22T04:21:28;20.30;67.30
16404;DHT22;8311;50.158;8.642;2022-10-22T04:24:20;20.30;67.60
16404;DHT22;8311;50.158;8.642;2022-10-22T04:27:13;20.30;67.60
16404;DHT22;8311;50.158;8.642;2022-10-22T04:30:07;20.30;67.20
16404;DHT22;8311;50.158;8.642;2022-10-22T04:33:00;20.30;67.20
16404;DHT22;8311;50.158;8.642;2022-10-22T04:35:55;20.30;67.30
16404;DHT22;8311;50.158;8.642;2022-10-22T04:38:53;20.30;66.70
16404;DHT22;8311;50.158;8.642;2022-10-22T04:41:46;20.30;66.70
16404;DHT22;8311;50.158;8.642;2022-10-22T04:44:39;20.30;66.50
16404;DHT22;8311;50.158;8.642;2022-10-22T04:47:32;20.30;66.60
16404;DHT22;8311;50.158;8.642;2022-10-22T04:50:26;20.30;66.50
16404;DHT22;8311;50.158;8.642;2022-10-22T04:53:19;20.30;66.80
16404;DHT22;8311;50.158;8.642;2022-10-22T04:56:14;20.30;66.90
16404;DHT22;8311;50.158;8.642;2022-10-22T04:59:10;20.30;66.60
16404;DHT22;8311;50.158;8.642;2022-10-22T05:02:05;20.30;66.50
16404;DHT22;8311;50.158;8.642;2022-10-22T05:04:58;20.30;66.90
16404;DHT22;8311;50.158;8.642;2022-10-22T05:07:51;20.30;66.80
16404;DHT22;8311;50.158;8.642;2022-10-22T05:10:44;20.30;66.50
16404;DHT22;8311;50.158;8.642;2022-10-22T05:13:39;20.30;66.40
16404;DHT22;8311;50.158;8.642;2022-10-22T05:16:33;20.30;66.30
16404;DHT22;8311;50.158;8.642;2022-10-22T05:19:28;20.30;66.30
16404;DHT22;8311;50.158;8.642;2022-10-22T05:22:22;20.30;66.30
16404;DHT22;8311;50.158;8.642;2022-10-22T05:25:14;20.30;66.30
16404;DHT22;8311;50.158;8.642;2022-10-22T05:28:08;20.30;66.20
16404;DHT22;8311;50.158;8.642;2022-10-22T05:31:02;20.30;66.40
16404;DHT22;8311;50.158;8.642;2022-10-22T05:33:56;20.30;66.20
16404;DHT22;8311;50.158;8.642;2022-10-22T05:36:50;20.30;66.30
16404;DHT22;8311;50.158;8.642;2022-10-22T05:39:42;20.30;66.40
16404;DHT22;8311;50.158;8.642;2022-10-22T05:42:36;20.30;66.40
16404;DHT22;8311;50.158;8.642;2022-10-22T05:45:29;20.30;66.80
16404;DHT22;8311;50.158;8.642;2022-10-22T05:48:24;20.30;66.60
16404;DHT22;8311;50.158;8.642;2022-10-22T05:51:18;20.30;66.40
16404;DHT22;8311;50.158;8.642;2022-10-22T05:54:16;20.30;66.40
16404;DHT22;8311;50.158;8.642;2022-10-22T05:57:09;20.30;66.30
16404;DHT22;8311;50.158;8.642;2022-10-22T06:00:03;20.30;66.40
16404;DHT22;8311;50.158;8.642;2022-10-22T06:02:57;20.30;66.60
16404;DHT22;8311;50.158;8.642;2022-10-22T06:05:51;20.30;67.00
16404;DHT22;8311;50.158;8.642;2022-10-22T06:08:45;20.30;66.70
16404;DHT22;8311;50.158;8.642;2022-10-22T06:11:38;20.30;66.50
16404;DHT22;8311;50.158;8.642;2022-10-22T06:14:31;20.30;66.50
16404;DHT22;8311;50.158;8.642;2022-10-22T06:17:24;20.30;66.70
16404;DHT22;8311;50.158;8.642;2022-10-22T06:20:17;20.30;66.90
16404;DHT22;8311;50.158;8.642;2022-10-22T06:23:12;20.30;66.40
16404;DHT22;8311;50.158;8.642;2022-10-22T06:26:06;20.30;66.60
16404;DHT22;8311;50.158;8.642;2022-10-22T06:28:59;20.30;66.60
16404;DHT22;8311;50.158;8.642;2022-10-22T06:31:52;20.30;66.30
16404;DHT22;8311;50.158;8.642;2022-10-22T06:34:45;20.30;66.20
16404;DHT22;8311;50.158;8.642;2022-10-22T06:37:40;20.30;66.20
16404;DHT22;8311;50.158;8.642;2022-10-22T06:40:35;20.30;66.30
16404;DHT22;8311;50.158;8.642;2022-10-22T06:43:28;20.30;66.10
16404;DHT22;8311;50.158;8.642;2022-10-22T06:46:22;20.30;66.20
16404;DHT22;8311;50.158;8.642;2022-10-22T06:49:16;20.30;66.20
16404;DHT22;8311;50.158;8.642;2022-10-22T06:52:10;20.30;66.10
16404;DHT22;8311;50.158;8.642;2022-10-22T06:55:03;20.30;66.10
16404;DHT22;8311;50.158;8.642;2022-10-22T06:57:58;20.30;66.10
16404;DHT22;8311;50.158;8.642;2022-10-22T07:00:59;20.30;66.10
16404;DHT22;8311;50.158;8.642;2022-10-22T07:03:53;20.30;66.90
16404;DHT22;8311;50.158;8.642;2022-10-22T07:06:46;20.30;66.10
16404;DHT22;8311;50.158;8.642;2022-10-22T07:09:39;20.30;66.10
16404;DHT22;8311;50.158;8.642;2022-10-22T07:12:33;20.30;66.00
16404;DHT22;8311;50.158;8.642;2022-10-22T07:15:27;20.30;66.10
16404;DHT22;8311;50.158;8.642;2022-10-22T07:18:19;20.30;66.00
16404;DHT22;8311;50.158;8.642;2022-10-22T07:21:14;20.30;66.00
16404;DHT22;8311;50.158;8.642;2022-10-22T07:24:07;20.30;66.00
16404;DHT22;8311;50.158;8.642;2022-10-22T07:27:01;20.30;66.00
16404;DHT22;8311;50.158;8.642;2022-10-22T07:29:56;20.30;65.90
16404;DHT22;8311;50.158;8.642;2022-10-22T07:32:53;20.30;65.90
16404;DHT22;8311;50.158;8.642;2022-10-22T07:35:46;20.30;65.90
16404;DHT22;8311;50.158;8.642;2022-10-22T07:38:39;20.30;65.90
16404;DHT22;8311;50.158;8.642;2022-10-22T07:41:31;20.30;66.30
16404;DHT22;8311;50.158;8.642;2022-10-22T07:44:25;20.30;66.10
16404;DHT22;8311;50.158;8.642;2022-10-22T07:47:18;20.30;66.70
16404;DHT22;8311;50.158;8.642;2022-10-22T07:50:12;20.30;66.50
16404;DHT22;8311;50.158;8.642;2022-10-22T07:53:06;20.30;66.90
16404;DHT22;8311;50.158;8.642;2022-10-22T07:56:00;20.30;67.20
16404;DHT22;8311;50.158;8.642;2022-10-22T07:58:53;20.30;67.20
16404;DHT22;8311;50.158;8.642;2022-10-22T08:01:46;20.30;67.10
16404;DHT22;8311;50.158;8.642;2022-10-22T08:04:39;20.30;67.30
16404;DHT22;8311;50.158;8.642;2022-10-22T08:07:33;20.30;67.40
16404;DHT22;8311;50.158;8.642;2022-10-22T08:10:27;20.30;67.50
16404;DHT22;8311;50.158;8.642;2022-10-22T08:13:21;20.40;68.70
16404;DHT22;8311;50.158;8.642;2022-10-22T08:16:15;20.40;69.40
16404;DHT22;8311;50.158;8.642;2022-10-22T08:19:09;20.40;69.00
16404;DHT22;8311;50.158;8.642;2022-10-22T08:22:02;20.40;68.90
16404;DHT22;8311;50.158;8.642;2022-10-22T08:24:57;20.40;69.10
16404;DHT22;8311;50.158;8.642;2022-10-22T08:27:50;20.50;69.30
16404;DHT22;8311;50.158;8.642;2022-10-22T08:30:44;20.50;69.40
16404;DHT22;8311;50.158;8.642;2022-10-22T08:33:39;20.50;69.40
16404;DHT22;8311;50.158;8.642;2022-10-22T08:36:33;20.50;69.10
16404;DHT22;8311;50.158;8.642;2022-10-22T08:39:27;20.60;69.40
16404;DHT22;8311;50.158;8.642;2022-10-22T08:42:51;20.60;69.20
16404;DHT22;8311;50.158;8.642;2022-10-22T08:45:58;20.60;68.80
16404;DHT22;8311;50.158;8.642;2022-10-22T08:48:54;20.60;68.40
16404;DHT22;8311;50.158;8.642;2022-10-22T08:51:49;20.70;69.20
16404;DHT22;8311;50.158;8.642;2022-10-22T08:54:49;20.70;68.40
16404;DHT22;8311;50.158;8.642;2022-10-22T08:57:50;20.70;68.40
16404;DHT22;8311;50.158;8.642;2022-10-22T09:00:52;20.70;68.30
16404;DHT22;8311;50.158;8.642;2022-10-22T09:03:50;20.80;68.10
16404;DHT22;8311;50.158;8.642;2022-10-22T09:06:44;20.80;68.10
16404;DHT22;8311;50.158;8.642;2022-10-22T09:09:48;20.80;68.10
16404;DHT22;8311;50.158;8.642;2022-10-22T09:12:43;20.80;68.20
16404;DHT22;8311;50.158;8.642;2022-10-22T09:15:38;20.70;67.90
16404;DHT22;8311;50.158;8.642;2022-10-22T09:18:41;20.80;67.20
16404;DHT22;8311;50.158;8.642;2022-10-22T09:21:43;20.80;67.20
16404;DHT22;8311;50.158;8.642;2022-10-22T09:24:39;20.80;67.30
16404;DHT22;8311;50.158;8.642;2022-10-22T09:27:34;20.90;67.40
16404;DHT22;8311;50.158;8.642;2022-10-22T09:30:28;20.80;67.30
16404;DHT22;8311;50.158;8.642;2022-10-22T09:33:26;20.90;67.40
16404;DHT22;8311;50.158;8.642;2022-10-22T09:36:22;20.80;67.10
16404;DHT22;8311;50.158;8.642;2022-10-22T09:39:23;20.80;67.10
16404;DHT22;8311;50.158;8.642;2022-10-22T09:42:19;20.80;67.10
16404;DHT22;8311;50.158;8.642;2022-10-22T09:45:17;20.90;66.90
16404;DHT22;8311;50.158;8.642;2022-10-22T09:48:19;20.90;66.70
16404;DHT22;8311;50.158;8.642;2022-10-22T09:51:18;20.90;66.60
16404;DHT22;8311;50.158;8.642;2022-10-22T09:54:17;20.90;66.40
16404;DHT22;8311;50.158;8.642;2022-10-22T09:57:14;20.90;66.10
16404;DHT22;8311;50.158;8.642;2022-10-22T10:00:09;20.90;66.40
16404;DHT22;8311;50.158;8.642;2022-10-22T10:03:03;21.00;67.10
16404;DHT22;8311;50.158;8.642;2022-10-22T10:05:58;21.00;67.00
16404;DHT22;8311;50.158;8.642;2022-10-22T10:08:59;21.10;67.60
16404;DHT22;8311;50.158;8.642;2022-10-22T10:12:00;21.10;66.50
16404;DHT22;8311;50.158;8.642;2022-10-22T10:15:01;21.10;66.90
16404;DHT22;8311;50.158;8.642;2022-10-22T10:18:01;21.20;66.70
16404;DHT22;8311;50.158;8.642;2022-10-22T10:21:04;21.30;67.00
16404;DHT22;8311;50.158;8.642;2022-10-22T10:24:05;21.40;66.20
16404;DHT22;8311;50.158;8.642;2022-10-22T10:27:08;21.50;65.70
16404;DHT22;8311;50.158;8.642;2022-10-22T10:30:10;21.50;65.40
16404;DHT22;8311;50.158;8.642;2022-10-22T10:33:15;21.60;65.00
16404;DHT22;8311;50.158;8.642;2022-10-22T10:36:19;21.70;65.30
16404;DHT22;8311;50.158;8.642;2022-10-22T10:39:23;21.80;65.00
16404;DHT22;8311;50.158;8.642;2022-10-22T10:42:23;21.80;64.90
16404;DHT22;8311;50.158;8.642;2022-10-22T10:45:23;21.90;64.90
16404;DHT22;8311;50.158;8.642;2022-10-22T10:48:40;21.90;64.60
16404;DHT22;8311;50.158;8.642;2022-10-22T10:51:43;21.90;64.20
16404;DHT22;8311;50.158;8.642;2022-10-22T10:54:45;22.00;64.20
16404;DHT22;8311;50.158;8.642;2022-10-22T10:57:48;22.00;63.80
16404;DHT22;8311;50.158;8.642;2022-10-22T11:00:52;21.90;63.80
16404;DHT22;8311;50.158;8.642;2022-10-22T11:07:38;21.90;64.00
16404;DHT22;8311;50.158;8.642;2022-10-22T11:10:38;21.80;64.00
16404;DHT22;8311;50.158;8.642;2022-10-22T11:13:35;21.80;64.00
16404;DHT22;8311;50.158;8.642;2022-10-22T11:16:33;21.80;63.90
16404;DHT22;8311;50.158;8.642;2022-10-22T11:19:32;21.80;63.90
16404;DHT22;8311;50.158;8.642;2022-10-22T11:22:47;21.80;64.00
16404;DHT22;8311;50.158;8.642;2022-10-22T11:26:02;21.80;64.10
16404;DHT22;8311;50.158;8.642;2022-10-22T11:28:59;21.80;64.20
16404;DHT22;8311;50.158;8.642;2022-10-22T11:31:55;21.80;64.20
16404;DHT22;8311;50.158;8.642;2022-10-22T11:34:50;21.90;63.60
16404;DHT22;8311;50.158;8.642;2022-10-22T11:37:46;21.90;63.70
16404;DHT22;8311;50.158;8.642;2022-10-22T11:40:45;21.80;63.40
16404;DHT22;8311;50.158;8.642;2022-10-22T11:43:58;21.80;63.70
16404;DHT22;8311;50.158;8.642;2022-10-22T11:47:02;21.80;63.70
16404;DHT22;8311;50.158;8.642;2022-10-22T11:50:17;21.80;63.80
16404;DHT22;8311;50.158;8.642;2022-10-22T11:53:19;21.80;63.70
16404;DHT22;8311;50.158;8.642;2022-10-22T11:56:24;21.80;63.70
16404;DHT22;8311;50.158;8.642;2022-10-22T11:59:37;21.80;64.20
16404;DHT22;8311;50.158;8.642;2022-10-22T12:02:42;21.80;64.00
16404;DHT22;8311;50.158;8.642;2022-10-22T12:05:38;21.80;63.70
16404;DHT22;8311;50.158;8.642;2022-10-22T12:08:31;21.80;63.60
16404;DHT22;8311;50.158;8.642;2022-10-22T12:11:28;21.90;63.60
16404;DHT22;8311;50.158;8.642;2022-10-22T12:14:33;21.90;63.50
16404;DHT22;8311;50.158;8.642;2022-10-22T12:17:32;21.90;64.30
16404;DHT22;8311;50.158;8.642;2022-10-22T12:20:26;21.90;63.30
16404;DHT22;8311;50.158;8.642;2022-10-22T12:23:29;21.90;63.30
16404;DHT22;8311;50.158;8.642;2022-10-22T12:26:25;21.80;63.20
16404;DHT22;8311;50.158;8.642;2022-10-22T12:29:20;21.80;63.10
16404;DHT22;8311;50.158;8.642;2022-10-22T12:32:15;21.80;62.70
16404;DHT22;8311;50.158;8.642;2022-10-22T12:35:15;21.70;62.50
16404;DHT22;8311;50.158;8.642;2022-10-22T12:38:13;21.70;62.70
16404;DHT22;8311;50.158;8.642;2022-10-22T12:41:08;21.70;62.80
16404;DHT22;8311;50.158;8.642;2022-10-22T12:44:04;21.70;62.90
16404;DHT22;8311;50.158;8.642;2022-10-22T12:46:57;21.60;62.70
16404;DHT22;8311;50.158;8.642;2022-10-22T12:49:51;21.60;62.80
16404;DHT22;8311;50.158;8.642;2022-10-22T12:52:44;21.60;62.80
16404;DHT22;8311;50.158;8.642;2022-10-22T12:55:38;21.60;62.90
16404;DHT22;8311;50.158;8.642;2022-10-22T12:58:37;21.60;62.80
16404;DHT22;8311;50.158;8.642;2022-10-22T13:01:33;21.60;62.60
16404;DHT22;8311;50.158;8.642;2022-10-22T13:04:33;21.60;62.70
16404;DHT22;8311;50.158;8.642;2022-10-22T13:07:37;21.60;62.80
16404;DHT22;8311;50.158;8.642;2022-10-22T13:10:32;21.60;63.00
16404;DHT22;8311;50.158;8.642;2022-10-22T13:13:36;21.60;63.10
16404;DHT22;8311;50.158;8.642;2022-10-22T13:16:32;21.60;63.00
16404;DHT22;8311;50.158;8.642;2022-10-22T13:19:39;21.50;63.00
16404;DHT22;8311;50.158;8.642;2022-10-22T13:22:35;21.50;63.30
16404;DHT22;8311;50.158;8.642;2022-10-22T13:25:30;21.50;63.80
16404;DHT22;8311;50.158;8.642;2022-10-22T13:28:24;21.50;63.90
16404;DHT22;8311;50.158;8.642;2022-10-22T13:31:22;21.50;64.10
16404;DHT22;8311;50.158;8.642;2022-10-22T13:34:20;21.50;64.40
16404;DHT22;8311;50.158;8.642;2022-10-22T13:37:14;21.50;64.40
16404;DHT22;8311;50.158;8.642;2022-10-22T13:40:12;21.40;64.40
16404;DHT22;8311;50.158;8.642;2022-10-22T13:43:04;21.40;64.50
16404;DHT22;8311;50.158;8.642;2022-10-22T13:45:59;21.50;64.70
16404;DHT22;8311;50.158;8.642;2022-10-22T13:48:53;21.40;64.60
16404;DHT22;8311;50.158;8.642;2022-10-22T13:51:47;21.40;64.40
16404;DHT22;8311;50.158;8.642;2022-10-22T13:54:41;21.40;64.30
16404;DHT22;8311;50.158;8.642;2022-10-22T13:57:35;21.40;64.30
16404;DHT22;8311;50.158;8.642;2022-10-22T14:00:28;21.40;64.10
16404;DHT22;8311;50.158;8.642;2022-10-22T14:03:24;21.40;64.10
16404;DHT22;8311;50.158;8.642;2022-10-22T14:06:19;21.40;64.10
16404;DHT22;8311;50.158;8.642;2022-10-22T14:09:14;21.40;64.10
16404;DHT22;8311;50.158;8.642;2022-10-22T14:12:11;21.40;64.10
16404;DHT22;8311;50.158;8.642;2022-10-22T14:15:08;21.40;64.10
16404;DHT22;8311;50.158;8.642;2022-10-22T14:18:03;21.30;64.00
16404;DHT22;8311;50.158;8.642;2022-10-22T14:20:58;21.30;64.10
16404;DHT22;8311;50.158;8.642;2022-10-22T14:23:55;21.30;64.10
16404;DHT22;8311;50.158;8.642;2022-10-22T14:26:48;21.30;64.10
16404;DHT22;8311;50.158;8.642;2022-10-22T14:29:41;21.30;64.00
16404;DHT22;8311;50.158;8.642;2022-10-22T14:32:36;21.30;64.00
16404;DHT22;8311;50.158;8.642;2022-10-22T14:35:31;21.30;64.70
16404;DHT22;8311;50.158;8.642;2022-10-22T14:38:24;21.30;63.80
16404;DHT22;8311;50.158;8.642;2022-10-22T14:41:37;21.30;63.70
16404;DHT22;8311;50.158;8.642;2022-10-22T14:44:39;21.30;63.60
16404;DHT22;8311;50.158;8.642;2022-10-22T14:47:33;21.30;63.60
16404;DHT22;8311;50.158;8.642;2022-10-22T14:50:33;21.20;63.50
16404;DHT22;8311;50.158;8.642;2022-10-22T14:53:36;21.30;63.60
16404;DHT22;8311;50.158;8.642;2022-10-22T14:56:42;21.20;63.50
16404;DHT22;8311;50.158;8.642;2022-10-22T14:59:51;21.20;63.50
16404;DHT22;8311;50.158;8.642;2022-10-22T15:02:45;21.20;63.50
16404;DHT22;8311;50.158;8.642;2022-10-22T15:05:41;21.20;63.60
16404;DHT22;8311;50.158;8.642;2022-10-22T15:08:35;21.20;63.40
16404;DHT22;8311;50.158;8.642;2022-10-22T15:11:31;21.20;63.50
16404;DHT22;8311;50.158;8.642;2022-10-22T15:14:27;21.20;63.60
16404;DHT22;8311;50.158;8.642;2022-10-22T15:17:20;21.20;63.60
16404;DHT22;8311;50.158;8.642;2022-10-22T15:20:14;21.20;63.60
16404;DHT22;8311;50.158;8.642;2022-10-22T15:23:09;21.20;63.60
16404;DHT22;8311;50.158;8.642;2022-10-22T15:26:02;21.20;63.60
16404;DHT22;8311;50.158;8.642;2022-10-22T15:28:55;21.20;63.60
16404;DHT22;8311;50.158;8.642;2022-10-22T15:31:49;21.20;63.60
16404;DHT22;8311;50.158;8.642;2022-10-22T15:34:43;21.20;63.60
16404;DHT22;8311;50.158;8.642;2022-10-22T15:37:36;21.20;63.70
16404;DHT22;8311;50.158;8.642;2022-10-22T15:40:30;21.20;63.70
16404;DHT22;8311;50.158;8.642;2022-10-22T15:43:24;21.20;63.80
16404;DHT22;8311;50.158;8.642;2022-10-22T15:46:18;21.10;63.80
16404;DHT22;8311;50.158;8.642;2022-10-22T15:49:12;21.10;63.80
16404;DHT22;8311;50.158;8.642;2022-10-22T15:52:05;21.10;63.80
16404;DHT22;8311;50.158;8.642;2022-10-22T15:54:59;21.10;63.80
16404;DHT22;8311;50.158;8.642;2022-10-22T15:57:56;21.10;63.80
16404;DHT22;8311;50.158;8.642;2022-10-22T16:00:54;21.10;63.90
16404;DHT22;8311;50.158;8.642;2022-10-22T16:03:49;21.10;64.00
16404;DHT22;8311;50.158;8.642;2022-10-22T16:06:51;21.10;64.00
16404;DHT22;8311;50.158;8.642;2022-10-22T16:09:45;21.10;64.00
16404;DHT22;8311;50.158;8.642;2022-10-22T16:12:39;21.10;64.00
16404;DHT22;8311;50.158;8.642;2022-10-22T16:15:35;21.10;64.00
16404;DHT22;8311;50.158;8.642;2022-10-22T16:18:28;21.10;64.00
16404;DHT22;8311;50.158;8.642;2022-10-22T16:21:23;21.10;64.00
16404;DHT22;8311;50.158;8.642;2022-10-22T16:24:16;21.10;64.10
16404;DHT22;8311;50.158;8.642;2022-10-22T16:27:09;21.10;64.10
16404;DHT22;8311;50.158;8.642;2022-10-22T16:30:02;21.10;64.10
16404;DHT22;8311;50.158;8.642;2022-10-22T16:32:57;21.10;64.20
16404;DHT22;8311;50.158;8.642;2022-10-22T16:35:54;21.10;64.20
16404;DHT22;8311;50.158;8.642;2022-10-22T16:38:47;21.10;64.20
16404;DHT22;8311;50.158;8.642;2022-10-22T16:41:41;21.10;64.30
16404;DHT22;8311;50.158;8.642;2022-10-22T16:44:35;21.10;64.20
16404;DHT22;8311;50.158;8.642;2022-10-22T16:47:30;21.10;64.20
16404;DHT22;8311;50.158;8.642;2022-10-22T16:50:24;21.10;64.20
16404;DHT22;8311;50.158;8.642;2022-10-22T16:53:17;21.00;64.10
16404;DHT22;8311;50.158;8.642;2022-10-22T16:56:13;21.10;64.20
16404;DHT22;8311;50.158;8.642;2022-10-22T16:59:06;21.10;64.20
16404;DHT22;8311;50.158;8.642;2022-10-22T17:01:59;21.10;64.10
16404;DHT22;8311;50.158;8.642;2022-10-22T17:04:52;21.00;64.00
16404;DHT22;8311;50.158;8.642;2022-10-22T17:07:47;21.00;64.00
16404;DHT22;8311;50.158;8.642;2022-10-22T17:10:40;21.00;64.00
16404;DHT22;8311;50.158;8.642;2022-10-22T17:13:33;21.00;63.90
16404;DHT22;8311;50.158;8.642;2022-10-22T17:16:28;21.10;64.00
16404;DHT22;8311;50.158;8.642;2022-10-22T17:19:22;21.00;63.90
16404;DHT22;8311;50.158;8.642;2022-10-22T17:22:16;21.00;63.90
16404;DHT22;8311;50.158;8.642;2022-10-22T17:25:13;21.00;63.90
16404;DHT22;8311;50.158;8.642;2022-10-22T17:28:06;21.00;63.90
16404;DHT22;8311;50.158;8.642;2022-10-22T17:31:04;21.00;63.80
16404;DHT22;8311;50.158;8.642;2022-10-22T17:33:57;21.00;63.90
16404;DHT22;8311;50.158;8.642;2022-10-22T17:36:51;21.00;63.80
16404;DHT22;8311;50.158;8.642;2022-10-22T17:39:44;21.00;63.80
16404;DHT22;8311;50.158;8.642;2022-10-22T17:42:39;21.00;63.80
16404;DHT22;8311;50.158;8.642;2022-10-22T17:45:34;21.00;63.80
16404;DHT22;8311;50.158;8.642;2022-10-22T17:48:27;21.00;63.80
16404;DHT22;8311;50.158;8.642;2022-10-22T17:51:21;21.00;63.80
16404;DHT22;8311;50.158;8.642;2022-10-22T17:54:15;21.00;63.90
16404;DHT22;8311;50.158;8.642;2022-10-22T17:57:09;21.00;63.80
16404;DHT22;8311;50.158;8.642;2022-10-22T18:00:07;21.00;63.80
16404;DHT22;8311;50.158;8.642;2022-10-22T18:03:00;21.00;63.80
16404;DHT22;8311;50.158;8.642;2022-10-22T18:05:53;21.00;63.80
16404;DHT22;8311;50.158;8.642;2022-10-22T18:08:46;21.00;63.80
16404;DHT22;8311;50.158;8.642;2022-10-22T18:11:40;21.00;63.70
16404;DHT22;8311;50.158;8.642;2022-10-22T18:14:34;21.00;63.80
16404;DHT22;8311;50.158;8.642;2022-10-22T18:17:29;20.90;63.70
16404;DHT22;8311;50.158;8.642;2022-10-22T18:20:25;20.90;63.70
16404;DHT22;8311;50.158;8.642;2022-10-22T18:23:18;21.00;63.70
16404;DHT22;8311;50.158;8.642;2022-10-22T18:26:11;21.00;63.80
16404;DHT22;8311;50.158;8.642;2022-10-22T18:29:04;21.00;63.80
16404;DHT22;8311;50.158;8.642;2022-10-22T18:31:57;20.90;63.70
16404;DHT22;8311;50.158;8.642;2022-10-22T18:34:52;20.90;63.60
16404;DHT22;8311;50.158;8.642;2022-10-22T18:37:45;20.90;63.60
16404;DHT22;8311;50.158;8.642;2022-10-22T18:40:44;20.90;63.50
16404;DHT22;8311;50.158;8.642;2022-10-22T18:43:37;20.90;63.40
16404;DHT22;8311;50.158;8.642;2022-10-22T18:46:32;20.90;63.30
16404;DHT22;8311;50.158;8.642;2022-10-22T18:49:29;20.90;63.30
16404;DHT22;8311;50.158;8.642;2022-10-22T18:52:24;20.90;63.30